Terminal Aerodrome Forecast
Issued by NWS Albuquerque, NM

Home | Current Version | Previous Version | Text Only | Print | Product List | Glossary On
Versions: 1 2 3 4 5 6 7 8 9 10 11 12 13
000
FTUS45 KABQ 300539
TAFABQ
TAF
KABQ 300539Z 3006/3106 09009KT P6SM FEW100
      TEMPO 3006/3008 09015G25KT
     FM301800 11011KT P6SM SCT080 BKN120
     FM302100 10015G25KT P6SM VCTS BKN080CB
     FM310000 10015G25KT P6SM VCSH BKN100
     FM310400 09011KT P6SM BKN100=

USA.gov is the U.S. government's official web portal to all federal, state and local government web resources and services.